Time,TemperatureF,DewpointF,PressureIn,WindDirection,WindDirectionDegrees,WindSpeedMPH,WindSpeedGustMPH,Humidity,HourlyPrecipIn,Conditions,Clouds,dailyrainin,SolarRadiationWatts/m^2,SoftwareType,DateUTC
2013-02-03 00:21:00,34.0,28.0,-100.00,WNW,292,9.0,14.0,77,0.00,,,0.00,0.000000,,2013-02-03 06:21:00,
2013-02-03 00:32:00,34.0,28.0,-100.00,WNW,292,9.0,14.0,77,0.00,,,0.00,0.000000,,2013-02-03 06:32:00,
2013-02-03 00:42:00,34.0,28.0,-100.00,WNW,292,9.0,14.0,77,0.00,,,0.00,0.000000,,2013-02-03 06:42:00,
2013-02-03 00:52:00,34.0,28.0,-100.00,WNW,292,9.0,14.0,77,0.00,,,0.00,0.000000,,2013-02-03 06:52:00,
2013-02-03 01:21:00,35.0,30.0,-100.00,WNW,300,12.0,16.0,82,0.00,,,0.00,0.000000,,2013-02-03 07:21:00,
2013-02-03 01:31:00,35.0,30.0,-100.00,WNW,300,12.0,16.0,82,0.00,,,0.00,0.000000,,2013-02-03 07:31:00,
2013-02-03 01:42:00,35.0,30.0,-100.00,WNW,300,12.0,16.0,82,0.00,,,0.00,0.000000,,2013-02-03 07:42:00,
2013-02-03 01:52:00,35.0,30.0,-100.00,WNW,300,12.0,16.0,82,0.00,,,0.00,0.000000,,2013-02-03 07:52:00,
2013-02-03 02:22:00,34.0,30.0,-100.00,NW,322,11.0,16.0,85,0.00,,,0.00,0.000000,,2013-02-03 08:22:00,
2013-02-03 02:32:00,34.0,30.0,-100.00,NW,322,11.0,16.0,85,0.00,,,0.00,0.000000,,2013-02-03 08:32:00,
2013-02-03 02:41:00,34.0,30.0,-100.00,NW,322,11.0,16.0,85,0.00,,,0.00,0.000000,,2013-02-03 08:41:00,
2013-02-03 02:52:00,34.0,30.0,-100.00,NW,322,11.0,16.0,85,0.00,,,0.00,0.000000,,2013-02-03 08:52:00,
2013-02-03 03:21:00,31.0,28.0,-100.00,NW,307,9.0,12.0,88,0.00,,,0.00,0.000000,,2013-02-03 09:21:00,
2013-02-03 03:31:00,31.0,28.0,-100.00,NW,307,9.0,12.0,88,0.00,,,0.00,0.000000,,2013-02-03 09:31:00,
2013-02-03 03:42:00,31.0,28.0,-100.00,NW,307,9.0,12.0,88,0.00,,,0.00,0.000000,,2013-02-03 09:42:00,
2013-02-03 03:51:00,31.0,28.0,-100.00,NW,307,9.0,12.0,88,0.00,,,0.00,0.000000,,2013-02-03 09:51:00,
2013-02-03 04:21:00,29.0,25.0,-100.00,WNW,303,7.0,12.0,85,0.00,,,0.00,0.000000,,2013-02-03 10:21:00,
2013-02-03 04:31:00,29.0,25.0,-100.00,WNW,303,7.0,12.0,85,0.00,,,0.00,0.000000,,2013-02-03 10:31:00,
2013-02-03 04:42:00,29.0,25.0,-100.00,WNW,303,7.0,12.0,85,0.00,,,0.00,0.000000,,2013-02-03 10:42:00,
2013-02-03 04:52:00,29.0,25.0,-100.00,WNW,303,7.0,12.0,85,0.00,,,0.00,0.000000,,2013-02-03 10:52:00,
2013-02-03 05:22:00,26.0,24.0,-100.00,WNW,286,7.0,11.0,93,0.00,,,0.00,0.000000,,2013-02-03 11:22:00,
2013-02-03 05:32:00,26.0,24.0,-100.00,WNW,286,7.0,11.0,93,0.00,,,0.00,0.000000,,2013-02-03 11:32:00,
2013-02-03 05:42:00,26.0,24.0,-100.00,WNW,286,7.0,11.0,93,0.00,,,0.00,0.000000,,2013-02-03 11:42:00,
2013-02-03 05:52:00,26.0,24.0,-100.00,WNW,286,7.0,11.0,93,0.00,,,0.00,0.000000,,2013-02-03 11:52:00,
2013-02-03 06:22:00,27.0,26.0,-100.00,WNW,282,5.0,9.0,95,0.00,,,0.00,0.000000,,2013-02-03 12:22:00,
2013-02-03 06:32:00,27.0,26.0,-100.00,WNW,282,5.0,9.0,95,0.00,,,0.00,0.000000,,2013-02-03 12:32:00,
2013-02-03 06:42:00,27.0,26.0,-100.00,WNW,282,5.0,9.0,95,0.00,,,0.00,0.000000,,2013-02-03 12:42:00,
2013-02-03 06:53:00,27.0,26.0,-100.00,WNW,282,5.0,9.0,95,0.00,,,0.00,0.000000,,2013-02-03 12:53:00,
2013-02-03 07:21:00,23.0,23.0,-100.00,WNW,287,2.0,6.0,100,0.00,,,0.00,0.000000,,2013-02-03 13:21:00,
2013-02-03 07:32:00,23.0,23.0,-100.00,WNW,287,2.0,6.0,100,0.00,,,0.00,0.000000,,2013-02-03 13:32:00,
2013-02-03 07:42:00,23.0,23.0,-100.00,WNW,287,2.0,6.0,100,0.00,,,0.00,0.000000,,2013-02-03 13:42:00,
2013-02-03 07:52:00,23.0,23.0,-100.00,WNW,287,2.0,6.0,100,0.00,,,0.00,0.000000,,2013-02-03 13:52:00,
2013-02-03 08:21:00,25.0,25.0,-100.00,SSW,213,6.0,8.0,100,0.00,,,0.00,7.000000,,2013-02-03 14:21:00,
2013-02-03 08:32:00,25.0,25.0,-100.00,SSW,213,6.0,8.0,100,0.00,,,0.00,7.000000,,2013-02-03 14:32:00,
2013-02-03 08:42:00,25.0,25.0,-100.00,SSW,213,6.0,8.0,100,0.00,,,0.00,7.000000,,2013-02-03 14:42:00,
2013-02-03 08:52:00,25.0,25.0,-100.00,SSW,213,6.0,8.0,100,0.00,,,0.00,7.000000,,2013-02-03 14:52:00,
2013-02-03 09:22:00,31.0,31.0,-100.00,SSW,208,5.0,7.0,100,0.00,,,0.00,134.000000,,2013-02-03 15:22:00,
2013-02-03 09:33:00,31.0,31.0,-100.00,SSW,208,5.0,7.0,100,0.00,,,0.00,134.000000,,2013-02-03 15:33:00,
2013-02-03 09:42:00,31.0,31.0,-100.00,SSW,208,5.0,7.0,100,0.00,,,0.00,134.000000,,2013-02-03 15:42:00,
2013-02-03 09:51:00,31.0,31.0,-100.00,SSW,208,5.0,7.0,100,0.00,,,0.00,134.000000,,2013-02-03 15:51:00,
2013-02-03 10:22:00,35.0,32.0,-100.00,South,189,8.0,11.0,89,0.00,,,0.00,319.000000,,2013-02-03 16:22:00,
2013-02-03 10:33:00,35.0,32.0,-100.00,South,189,8.0,11.0,89,0.00,,,0.00,319.000000,,2013-02-03 16:33:00,
2013-02-03 10:42:00,35.0,32.0,-100.00,South,189,8.0,11.0,89,0.00,,,0.00,319.000000,,2013-02-03 16:42:00,
2013-02-03 10:52:00,35.0,32.0,-100.00,South,189,8.0,11.0,89,0.00,,,0.00,319.000000,,2013-02-03 16:52:00,
2013-02-03 11:22:00,37.0,31.0,-100.00,SSW,194,12.0,16.0,80,0.00,,,0.00,494.000000,,2013-02-03 17:22:00,
2013-02-03 11:32:00,37.0,31.0,-100.00,SSW,194,12.0,16.0,80,0.00,,,0.00,494.000000,,2013-02-03 17:32:00,
2013-02-03 11:42:00,37.0,31.0,-100.00,SSW,194,12.0,16.0,80,0.00,,,0.00,494.000000,,2013-02-03 17:42:00,
2013-02-03 11:52:00,37.0,31.0,-100.00,SSW,194,12.0,16.0,80,0.00,,,0.00,494.000000,,2013-02-03 17:52:00,
2013-02-03 12:23:00,41.0,32.0,-100.00,SSW,198,15.0,19.0,69,0.00,,,0.00,616.000000,,2013-02-03 18:23:00,
2013-02-03 12:33:00,41.0,32.0,-100.00,SSW,198,15.0,19.0,69,0.00,,,0.00,616.000000,,2013-02-03 18:33:00,
2013-02-03 12:42:00,41.0,32.0,-100.00,SSW,198,15.0,19.0,69,0.00,,,0.00,616.000000,,2013-02-03 18:42:00,
2013-02-03 12:51:00,41.0,32.0,-100.00,SSW,198,15.0,19.0,69,0.00,,,0.00,616.000000,,2013-02-03 18:51:00,
2013-02-03 13:22:00,43.0,32.0,-100.00,SSW,204,17.0,22.0,66,0.00,,,0.00,640.000000,,2013-02-03 19:22:00,
2013-02-03 13:32:00,43.0,32.0,-100.00,SSW,204,17.0,22.0,66,0.00,,,0.00,640.000000,,2013-02-03 19:32:00,
2013-02-03 13:42:00,43.0,32.0,-100.00,SSW,204,17.0,22.0,66,0.00,,,0.00,640.000000,,2013-02-03 19:42:00,
2013-02-03 13:51:00,43.0,32.0,-100.00,SSW,204,17.0,22.0,66,0.00,,,0.00,640.000000,,2013-02-03 19:51:00,
2013-02-03 14:21:00,45.0,32.0,-100.00,SSW,204,17.0,21.0,60,0.00,,,0.00,571.000000,,2013-02-03 20:21:00,
2013-02-03 14:33:00,45.0,32.0,-100.00,SSW,204,17.0,21.0,60,0.00,,,0.00,571.000000,,2013-02-03 20:33:00,
2013-02-03 14:42:00,45.0,32.0,-100.00,SSW,204,17.0,21.0,60,0.00,,,0.00,571.000000,,2013-02-03 20:42:00,
2013-02-03 14:52:00,45.0,32.0,-100.00,SSW,204,17.0,21.0,60,0.00,,,0.00,571.000000,,2013-02-03 20:52:00,
2013-02-03 15:21:00,46.0,31.0,-100.00,SSW,206,16.0,21.0,56,0.00,,,0.00,452.000000,,2013-02-03 21:21:00,
2013-02-03 15:32:00,46.0,31.0,-100.00,SSW,206,16.0,21.0,56,0.00,,,0.00,452.000000,,2013-02-03 21:32:00,
2013-02-03 15:42:00,46.0,31.0,-100.00,SSW,206,16.0,21.0,56,0.00,,,0.00,452.000000,,2013-02-03 21:42:00,
2013-02-03 15:51:00,46.0,31.0,-100.00,SSW,206,16.0,21.0,56,0.00,,,0.00,452.000000,,2013-02-03 21:51:00,
2013-02-03 16:21:00,45.0,31.0,-100.00,SSW,201,14.0,20.0,57,0.00,,,-99.99,286.000000,,2013-02-03 22:21:00,
2013-02-03 16:32:00,45.0,31.0,-100.00,SSW,201,14.0,20.0,57,0.00,,,-99.99,286.000000,,2013-02-03 22:32:00,
2013-02-03 16:42:00,45.0,31.0,-100.00,SSW,201,14.0,20.0,57,0.00,,,-99.99,286.000000,,2013-02-03 22:42:00,
2013-02-03 16:51:00,45.0,31.0,-100.00,SSW,201,14.0,20.0,57,0.00,,,-99.99,286.000000,,2013-02-03 22:51:00,
2013-02-03 17:22:00,42.0,31.0,-100.00,SSW,197,8.0,14.0,65,0.00,,,0.00,140.000000,,2013-02-03 23:22:00,
2013-02-03 17:32:00,42.0,31.0,-100.00,SSW,197,8.0,14.0,65,0.00,,,0.00,140.000000,,2013-02-03 23:32:00,
2013-02-03 17:42:00,42.0,31.0,-100.00,SSW,197,8.0,14.0,65,0.00,,,0.00,140.000000,,2013-02-03 23:42:00,
2013-02-03 17:52:00,42.0,31.0,-100.00,SSW,197,8.0,14.0,65,0.00,,,0.00,140.000000,,2013-02-03 23:52:00,
2013-02-03 18:22:00,36.0,33.0,-100.00,South,172,4.0,9.0,89,0.00,,,0.00,29.000000,,2013-02-04 00:22:00,
2013-02-03 19:21:00,36.0,34.0,-100.00,South,172,7.0,8.0,93,0.00,,,0.00,0.000000,,2013-02-04 01:21:00,
2013-02-03 19:32:00,36.0,34.0,-100.00,South,172,7.0,8.0,93,0.00,,,0.00,0.000000,,2013-02-04 01:32:00,
2013-02-03 19:41:00,36.0,34.0,-100.00,South,172,7.0,8.0,93,0.00,,,0.00,0.000000,,2013-02-04 01:41:00,
2013-02-03 19:52:00,36.0,34.0,-100.00,South,172,7.0,8.0,93,0.00,,,0.00,0.000000,,2013-02-04 01:52:00,
2013-02-03 20:21:00,35.0,33.0,-100.00,SSE,168,8.0,10.0,94,0.00,,,0.00,0.000000,,2013-02-04 02:21:00,
2013-02-03 20:32:00,35.0,33.0,-100.00,SSE,168,8.0,10.0,94,0.00,,,0.00,0.000000,,2013-02-04 02:32:00,
2013-02-03 20:41:00,35.0,33.0,-100.00,SSE,168,8.0,10.0,94,0.00,,,0.00,0.000000,,2013-02-04 02:41:00,
2013-02-03 20:52:00,35.0,33.0,-100.00,SSE,168,8.0,10.0,94,0.00,,,0.00,0.000000,,2013-02-04 02:52:00,
2013-02-03 21:21:00,33.0,32.0,-100.00,SW,219,5.0,8.0,98,0.00,,,0.00,0.000000,,2013-02-04 03:21:00,
2013-02-03 21:32:00,33.0,32.0,-100.00,SW,219,5.0,8.0,98,0.00,,,0.00,0.000000,,2013-02-04 03:32:00,
2013-02-03 21:42:00,33.0,32.0,-100.00,SW,219,5.0,8.0,98,0.00,,,0.00,0.000000,,2013-02-04 03:42:00,
2013-02-03 21:51:00,33.0,32.0,-100.00,SW,219,5.0,8.0,98,0.00,,,0.00,0.000000,,2013-02-04 03:51:00,
2013-02-03 22:21:00,32.0,32.0,-100.00,SW,220,6.0,7.0,100,0.00,,,0.00,0.000000,,2013-02-04 04:21:00,
2013-02-03 22:32:00,32.0,32.0,-100.00,SW,220,6.0,7.0,100,0.00,,,0.00,0.000000,,2013-02-04 04:32:00,
2013-02-03 22:42:00,32.0,32.0,-100.00,SW,220,6.0,7.0,100,0.00,,,0.00,0.000000,,2013-02-04 04:42:00,
2013-02-03 22:52:00,32.0,32.0,-100.00,SW,220,6.0,7.0,100,0.00,,,0.00,0.000000,,2013-02-04 04:52:00,
2013-02-03 23:22:00,33.0,33.0,-100.00,SW,219,6.0,7.0,100,0.00,,,0.00,0.000000,,2013-02-04 05:22:00,
2013-02-03 23:33:00,33.0,33.0,-100.00,SW,219,6.0,7.0,100,0.00,,,0.00,0.000000,,2013-02-04 05:33:00,
2013-02-03 23:42:00,33.0,33.0,-100.00,SW,219,6.0,7.0,100,0.00,,,0.00,0.000000,,2013-02-04 05:42:00,
2013-02-03 23:52:00,33.0,33.0,-100.00,SW,219,6.0,7.0,100,0.00,,,0.00,0.000000,,2013-02-04 05:52:00,